Terminal Aerodrome Forecast
Issued by NWS

Home | Current Version | Previous Version | Text Only | Print | Product List | Glossary On
Versions: 1 2 3 4 5 6 7 8 9 10 11 12 13 14 15 16 17 18 19 20 21 22 23 24 25 26 27
000
FTUS46 KLOX 180543
TAFPRB
TAF
KPRB 180543Z 1806/1906 15004KT P6SM OVC250
     FM181200 VRB03KT 3SM BR BKN007 BKN150
     FM181600 17005KT P6SM SCT015 BKN090
     FM182200 20012KT P6SM -SHRA BKN025 OVC045
     FM190300 VRB03KT 5SM -RA BR OVC015=

USA.gov is the U.S. government's official web portal to all federal, state and local government web resources and services.